Time;durP1;ratioP1;P1;durP2;ratioP2;P2;SDS_P1;SDS_P2;PMS_P1;PMS_P2;Temp;Humidity;BMP_temperature;BMP_pressure;BME280_temperature;BME280_humidity;BME280_pressure;Samples;Min_cycle;Max_cycle;Signal;HPM_P1;HPM_P2
2023/02/03 00:00:56;;;;;;;9.07;7.82;;;5.60;99.90;;;;;;4720761;30;20051;-81
2023/02/03 00:03:29;;;;;;;9.90;8.23;;;5.60;99.90;;;;;;4737805;30;20053;-90
2023/02/03 00:06:10;;;;;;;8.40;6.75;;;5.30;99.90;;;;;;4725535;30;20394;-82
2023/02/03 00:08:41;;;;;;;9.00;7.05;;;5.00;99.90;;;;;;4736772;30;20411;-83
2023/02/03 00:11:27;;;;;;;13.25;7.90;;;5.50;99.90;;;;;;4732223;30;20049;-75
2023/02/03 00:14:19;;;;;;;14.93;7.95;;;5.50;99.90;;;;;;4733144;30;20049;-79
2023/02/03 00:17:34;;;;;;;20.20;8.43;;;5.30;99.90;;;;;;4734262;30;20096;-78
2023/02/03 00:21:00;;;;;;;18.63;8.02;;;5.20;99.90;;;;;;4713916;30;20045;-84
2023/02/03 00:24:24;;;;;;;15.73;7.72;;;5.20;99.90;;;;;;5112027;27;20343;-78
2023/02/03 00:26:57;;;;;;;13.05;7.00;;;5.50;99.90;;;;;;5108674;28;20123;-87
2023/02/03 00:29:41;;;;;;;9.73;5.95;;;5.50;99.90;;;;;;5075206;28;20041;-80
2023/02/03 00:32:08;;;;;;;7.47;6.40;;;5.40;99.90;;;;;;5122071;27;20040;-83
2023/02/03 00:34:36;;;;;;;11.52;6.85;;;5.30;99.90;;;;;;5088908;28;20067;-80
2023/02/03 00:37:05;;;;;;;14.02;7.85;;;5.50;99.90;;;;;;5085575;28;20040;-77
2023/02/03 00:40:10;;;;;;;16.48;8.23;;;5.70;99.90;;;;;;5069140;28;20052;-86
2023/02/03 00:43:03;;;;;;;15.77;8.45;;;5.80;99.90;;;;;;5080969;28;20049;-82
2023/02/03 00:45:36;;;;;;;17.67;8.75;;;5.80;99.90;;;;;;5097450;28;20044;-86
2023/02/03 00:48:07;;;;;;;15.15;8.20;;;5.80;99.90;;;;;;5091863;28;20040;-83
2023/02/03 00:50:34;;;;;;;18.58;8.10;;;5.80;99.90;;;;;;5093620;28;20044;-81
2023/02/03 00:53:05;;;;;;;14.60;8.27;;;5.90;99.90;;;;;;5093157;28;20154;-84
2023/02/03 00:55:37;;;;;;;13.85;7.47;;;5.80;99.90;;;;;;5076577;28;20048;-83
2023/02/03 00:58:18;;;;;;;14.77;7.53;;;5.80;99.90;;;;;;5067581;28;20040;-84
2023/02/03 01:00:45;;;;;;;10.93;7.65;;;5.80;99.90;;;;;;5104109;28;20040;-90
2023/02/03 01:03:13;;;;;;;12.38;7.85;;;5.50;99.90;;;;;;5098976;28;20036;-83
2023/02/03 01:05:43;;;;;;;8.63;7.25;;;5.60;99.90;;;;;;5078880;28;20071;-78
2023/02/03 01:08:22;;;;;;;11.10;7.75;;;5.70;99.90;;;;;;5098160;28;20045;-88
2023/02/03 01:10:53;;;;;;;12.23;7.65;;;5.80;99.90;;;;;;5068348;28;20055;-87
2023/02/03 01:13:21;;;;;;;11.40;8.07;;;5.80;99.90;;;;;;5079204;28;20044;-87
2023/02/03 01:16:11;;;;;;;11.35;7.38;;;5.80;99.90;;;;;;5082986;23;20055;-85
2023/02/03 01:19:23;;;;;;;9.93;7.70;;;5.80;99.90;;;;;;5051046;28;20040;-76
2023/02/03 01:26:09;;;;;;;9.02;7.80;;;5.90;99.90;;;;;;4986000;28;20081;-81
2023/02/03 01:28:46;;;;;;;11.63;8.82;;;5.80;99.90;;;;;;4995752;28;20077;-75
2023/02/03 01:32:13;;;;;;;10.27;8.60;;;5.70;99.90;;;;;;4973030;28;20039;-76
2023/02/03 01:34:40;;;;;;;14.02;9.70;;;5.70;99.90;;;;;;5288035;23;20047;-87
2023/02/03 01:37:09;;;;;;;13.40;9.65;;;5.60;99.90;;;;;;5121452;28;20079;-80
2023/02/03 01:39:44;;;;;;;10.43;8.98;;;5.40;99.90;;;;;;5104963;28;20044;-85
2023/02/03 01:42:25;;;;;;;11.98;9.60;;;5.50;99.90;;;;;;5102771;28;20078;-83
2023/02/03 01:44:53;;;;;;;12.02;8.77;;;5.50;99.90;;;;;;5120618;28;20066;-86
2023/02/03 01:47:23;;;;;;;10.02;8.60;;;5.30;99.90;;;;;;5121748;28;20046;-78
2023/02/03 01:52:52;;;;;;;9.38;8.32;;;5.50;99.90;;;;;;5250155;23;20042;-86
2023/02/03 01:55:29;;;;;;;11.07;8.73;;;5.50;99.90;;;;;;4991515;28;20056;-87
2023/02/03 01:58:14;;;;;;;11.35;8.40;;;5.50;99.90;;;;;;5001955;28;20045;-86
2023/02/03 02:00:42;;;;;;;13.63;9.95;;;5.30;99.90;;;;;;5027141;28;20046;-85
2023/02/03 02:03:37;;;;;;;13.40;9.70;;;5.30;99.90;;;;;;5005222;28;20053;-78
2023/02/03 02:06:12;;;;;;;11.02;8.85;;;5.40;99.90;;;;;;5020847;28;20052;-81
2023/02/03 02:08:41;;;;;;;;;;;5.20;99.90;;;;;;5020491;28;20076;-82
2023/02/03 02:11:08;;;;;;;10.65;7.65;;;5.00;99.90;;;;;;5017773;28;19971;-79
2023/02/03 02:13:40;;;;;;;9.43;7.68;;;4.90;99.90;;;;;;4994783;28;20048;-83
2023/02/03 02:17:30;;;;;;;10.23;8.02;;;4.90;99.90;;;;;;4970731;28;20140;-84
2023/02/03 02:21:21;;;;;;;9.57;8.35;;;5.10;99.90;;;;;;4970332;28;20070;-81
2023/02/03 02:24:09;;;;;;;9.65;7.78;;;5.10;99.90;;;;;;4985574;28;20046;-81
2023/02/03 02:26:55;;;;;;;10.00;7.05;;;5.20;99.90;;;;;;4995149;28;20042;-78
2023/02/03 02:29:41;;;;;;;8.60;7.65;;;5.20;99.90;;;;;;4976321;28;20081;-83
2023/02/03 02:32:35;;;;;;;9.53;7.53;;;5.20;99.90;;;;;;4954181;28;20158;-85
2023/02/03 02:35:46;;;;;;;10.13;7.78;;;5.10;99.90;;;;;;4979404;28;20273;-79
2023/02/03 02:38:47;;;;;;;10.15;7.90;;;4.90;99.90;;;;;;4960065;28;20090;-83
2023/02/03 02:41:17;;;;;;;10.40;7.72;;;4.80;99.90;;;;;;4975138;28;20059;-86
2023/02/03 02:44:02;;;;;;;11.82;7.93;;;4.80;99.90;;;;;;4979121;28;20070;-86
2023/02/03 02:47:04;;;;;;;8.40;6.97;;;4.80;99.90;;;;;;4971711;28;20078;-87
2023/02/03 02:50:09;;;;;;;9.23;7.78;;;4.70;99.90;;;;;;4961406;28;20537;-83
2023/02/03 02:52:40;;;;;;;8.48;7.43;;;4.80;99.90;;;;;;4964023;28;20133;-78
2023/02/03 02:55:33;;;;;;;9.25;7.78;;;4.60;99.90;;;;;;5584682;23;20099;-78
2023/02/03 02:58:22;;;;;;;9.43;8.10;;;4.60;99.90;;;;;;4978747;28;20042;-82
2023/02/03 03:00:53;;;;;;;8.57;7.65;;;4.70;99.90;;;;;;4996675;28;20058;-84
2023/02/03 03:03:30;;;;;;;8.20;7.32;;;4.80;99.90;;;;;;5009203;28;20045;-81
2023/02/03 03:06:35;;;;;;;8.52;7.35;;;4.80;99.90;;;;;;5001137;28;20042;-80
2023/02/03 03:10:34;;;;;;;;;;;;;;;;;;;;;
2023/02/03 03:13:06;;;;;;;11.10;7.95;;;4.80;99.90;;;;;;4971332;28;20047;-80
2023/02/03 03:15:35;;;;;;;10.85;8.20;;;4.60;99.90;;;;;;5015318;28;20054;-80
2023/02/03 03:18:27;;;;;;;9.77;7.55;;;4.70;99.90;;;;;;5020611;28;20048;-78
2023/02/03 03:20:56;;;;;;;11.18;8.10;;;4.90;99.90;;;;;;4989492;28;20049;-78
2023/02/03 03:23:30;;;;;;;8.90;7.70;;;4.90;99.90;;;;;;5024698;28;20125;-81
2023/02/03 03:26:32;;;;;;;8.10;7.30;;;4.80;99.90;;;;;;5012231;28;20068;-86
2023/02/03 03:30:02;;;;;;;8.65;7.70;;;4.60;99.90;;;;;;4995545;28;20045;-82
2023/02/03 03:32:42;;;;;;;9.52;8.52;;;4.50;99.90;;;;;;4991644;28;20108;-87
2023/02/03 03:35:50;;;;;;;9.27;7.45;;;4.60;99.90;;;;;;4976024;28;20042;-82
2023/02/03 03:38:34;;;;;;;;;;;4.60;99.90;;;;;;4960564;28;20454;-83
2023/02/03 03:41:50;;;;;;;8.50;7.60;;;4.40;99.90;;;;;;4982849;28;19944;-84
2023/02/03 03:47:56;;;;;;;11.88;8.27;;;4.50;99.90;;;;;;4994006;22;20043;-84
2023/02/03 03:50:31;;;;;;;10.65;8.80;;;4.60;99.90;;;;;;4981200;28;20038;-88
2023/02/03 03:53:01;;;;;;;11.68;8.55;;;4.70;99.90;;;;;;4985262;28;20065;-86
2023/02/03 03:55:33;;;;;;;10.35;8.70;;;4.50;99.90;;;;;;5010791;28;20042;-86
2023/02/03 03:58:07;;;;;;;12.65;9.82;;;4.40;99.90;;;;;;4980939;28;20066;-87
2023/02/03 04:00:53;;;;;;;;;;;4.40;99.90;;;;;;4979765;28;20540;-85
2023/02/03 04:03:24;;;;;;;9.15;8.00;;;4.20;99.90;;;;;;4981089;28;19964;-85
2023/02/03 04:06:01;;;;;;;11.43;8.55;;;4.20;99.90;;;;;;4976268;28;20133;-82
2023/02/03 04:08:33;;;;;;;10.20;8.40;;;4.30;99.90;;;;;;4967022;28;20078;-87
2023/02/03 04:12:00;;;;;;;9.10;8.05;;;4.30;99.90;;;;;;4942025;28;20085;-84
2023/02/03 04:14:10;;;;;;;9.55;7.80;;;4.40;99.90;;;;;;4983070;28;20089;-85
2023/02/03 04:16:38;;;;;;;9.88;8.05;;;4.40;99.90;;;;;;5006217;28;20042;-78
2023/02/03 04:19:05;;;;;;;8.98;8.05;;;4.50;99.90;;;;;;4996866;28;20039;-79
2023/02/03 04:21:42;;;;;;;10.50;8.30;;;4.40;99.90;;;;;;4980858;28;20073;-82
2023/02/03 04:24:17;;;;;;;10.07;8.00;;;4.10;99.90;;;;;;4970096;28;20636;-85
2023/02/03 04:26:49;;;;;;;11.95;7.88;;;3.90;99.90;;;;;;4966665;28;20120;-86
2023/02/03 04:29:20;;;;;;;9.20;7.63;;;3.90;99.90;;;;;;4999495;28;20042;-86
2023/02/03 04:31:50;;;;;;;9.25;8.07;;;3.90;99.90;;;;;;4991939;23;20113;-85
2023/02/03 04:34:44;;;;;;;10.50;8.32;;;4.00;99.90;;;;;;5001432;28;20064;-77
2023/02/03 04:37:26;;;;;;;11.60;8.20;;;4.10;99.90;;;;;;4989912;28;20046;-84
2023/02/03 04:40:30;;;;;;;7.13;6.32;;;4.20;99.90;;;;;;5003172;28;20035;-86
2023/02/03 04:43:06;;;;;;;8.30;6.40;;;4.50;99.90;;;;;;5020717;28;20044;-88
2023/02/03 04:45:33;;;;;;;7.50;5.88;;;4.70;99.90;;;;;;5021071;28;20042;-85
2023/02/03 04:48:08;;;;;;;7.35;6.35;;;4.60;99.90;;;;;;5348646;23;20049;-86
2023/02/03 04:51:57;;;;;;;6.82;5.88;;;4.50;99.90;;;;;;5007516;28;20140;-83
2023/02/03 04:54:17;;;;;;;7.57;5.85;;;4.60;99.90;;;;;;5016420;28;20057;-81
2023/02/03 04:56:49;;;;;;;7.93;6.15;;;4.60;99.90;;;;;;5036933;28;20125;-87
2023/02/03 04:59:23;;;;;;;9.52;5.82;;;4.50;99.90;;;;;;5020713;28;20107;-82
2023/02/03 05:01:56;;;;;;;8.25;5.38;;;4.30;99.90;;;;;;5003527;28;20049;-81
2023/02/03 05:04:26;;;;;;;6.38;5.63;;;4.40;99.90;;;;;;5037835;28;20121;-81
2023/02/03 05:06:57;;;;;;;7.53;6.18;;;4.30;99.90;;;;;;5003524;28;20050;-87
2023/02/03 05:09:28;;;;;;;7.22;5.65;;;4.20;99.90;;;;;;5033198;28;20084;-86
2023/02/03 05:12:21;;;;;;;5.77;4.90;;;4.30;99.90;;;;;;5011803;28;20080;-83
2023/02/03 05:15:34;;;;;;;7.70;4.93;;;4.50;99.90;;;;;;5010697;28;20054;-83
2023/02/03 05:18:25;;;;;;;6.47;4.80;;;4.40;99.90;;;;;;4930053;29;20058;-87
2023/02/03 05:21:19;;;;;;;6.80;4.72;;;4.30;99.90;;;;;;4957342;28;20052;-83
2023/02/03 05:23:49;;;;;;;5.38;4.88;;;4.20;99.90;;;;;;4943214;28;20530;-85
2023/02/03 05:26:23;;;;;;;5.55;4.57;;;4.20;99.90;;;;;;4936680;29;20036;-86
2023/02/03 05:28:55;;;;;;;5.00;4.50;;;4.30;99.90;;;;;;4943909;29;20053;-84
2023/02/03 05:31:28;;;;;;;5.07;4.38;;;4.40;99.90;;;;;;4930401;29;20046;-82
2023/02/03 05:34:11;;;;;;;5.40;4.32;;;4.60;99.90;;;;;;4935335;29;20126;-79
2023/02/03 05:36:56;;;;;;;5.00;4.50;;;4.70;99.90;;;;;;4939626;29;20047;-85
2023/02/03 05:39:41;;;;;;;4.97;4.47;;;4.70;99.90;;;;;;4922849;29;20216;-77
2023/02/03 05:44:59;;;;;;;6.57;4.47;;;4.70;99.90;;;;;;5511956;23;20074;-87
2023/02/03 05:47:30;;;;;;;4.95;4.47;;;4.60;99.90;;;;;;4958727;28;20050;-86
2023/02/03 05:49:57;;;;;;;4.82;4.07;;;4.60;99.90;;;;;;4956786;28;20078;-84
2023/02/03 05:52:25;;;;;;;4.90;4.50;;;4.60;99.90;;;;;;4965553;28;20042;-81
2023/02/03 05:54:52;;;;;;;6.32;4.68;;;4.70;99.90;;;;;;4959302;28;20034;-81
2023/02/03 05:57:27;;;;;;;5.30;4.80;;;4.70;99.90;;;;;;4942290;28;20046;-80
2023/02/03 05:59:57;;;;;;;4.93;4.18;;;4.80;99.90;;;;;;4954972;28;20039;-80
2023/02/03 06:02:29;;;;;;;4.82;4.40;;;4.80;99.90;;;;;;4987013;28;20034;-83
2023/02/03 06:05:55;;;;;;;;;;;;;;;;;;;;;
2023/02/03 06:08:55;;;;;;;;;;;;;;;;;;;;;
2023/02/03 06:11:51;;;;;;;4.55;4.13;;;4.90;99.90;;;;;;4928567;29;20047;-80
2023/02/03 06:14:33;;;;;;;4.95;4.45;;;5.00;99.90;;;;;;4939013;29;20047;-86
2023/02/03 06:17:22;;;;;;;5.25;4.20;;;5.00;99.90;;;;;;4929662;29;20071;-78
2023/02/03 06:20:02;;;;;;;29.60;14.82;;;4.80;99.90;;;;;;4950778;28;20051;-83
2023/02/03 06:23:38;;;;;;;6.80;5.65;;;5.20;99.90;;;;;;5198450;23;20057;-82
2023/02/03 06:26:46;;;;;;;9.40;7.07;;;5.40;99.90;;;;;;4984412;28;20041;-75
2023/02/03 06:30:29;;;;;;;;;;;;;;;;;;;;;
2023/02/03 06:33:58;;;;;;;4.80;4.30;;;5.50;99.10;;;;;;4928905;29;20047;-78
2023/02/03 06:36:36;;;;;;;4.72;4.22;;;5.20;98.90;;;;;;4932295;29;20436;-78
2023/02/03 06:39:12;;;;;;;4.45;4.05;;;5.10;98.80;;;;;;4917459;29;20047;-78
2023/02/03 06:41:48;;;;;;;5.68;4.35;;;5.20;98.50;;;;;;4916748;29;20051;-77
2023/02/03 06:44:17;;;;;;;4.60;4.18;;;5.10;98.40;;;;;;4932659;29;20068;-75
2023/02/03 06:46:55;;;;;;;5.45;4.40;;;5.10;98.40;;;;;;4931596;29;20039;-77
2023/02/03 06:49:38;;;;;;;4.90;4.20;;;5.20;97.80;;;;;;4921412;29;20147;-79
2023/02/03 06:52:24;;;;;;;4.90;4.40;;;5.20;98.30;;;;;;4935940;29;20051;-76
2023/02/03 06:58:08;;;;;;;6.85;5.63;;;5.20;98.30;;;;;;4934017;29;20171;-75
2023/02/03 07:00:50;;;;;;;7.45;5.85;;;5.20;99.30;;;;;;4917484;29;20305;-76
2023/02/03 07:03:21;;;;;;;5.15;4.40;;;5.40;99.50;;;;;;4934541;29;20409;-81
2023/02/03 07:05:53;;;;;;;5.10;4.55;;;5.30;98.60;;;;;;4938858;28;20066;-79
2023/02/03 07:08:24;;;;;;;7.97;4.88;;;5.20;98.80;;;;;;4958196;28;20564;-76
2023/02/03 07:10:55;;;;;;;4.40;4.00;;;5.20;98.90;;;;;;4962646;28;20602;-78
2023/02/03 07:13:23;;;;;;;4.40;4.00;;;5.30;98.20;;;;;;4945553;28;20071;-79
2023/02/03 07:15:50;;;;;;;4.40;4.00;;;5.30;97.80;;;;;;4977754;28;20054;-80
2023/02/03 07:18:23;;;;;;;5.00;4.50;;;5.40;96.90;;;;;;4977189;28;20069;-79
2023/02/03 07:21:11;;;;;;;4.72;4.20;;;5.40;96.90;;;;;;4972035;28;20097;-80
2023/02/03 07:23:42;;;;;;;5.15;4.65;;;5.60;96.70;;;;;;4944876;28;20058;-82
2023/02/03 07:26:18;;;;;;;4.80;4.22;;;5.60;96.70;;;;;;4945059;28;20482;-81
2023/02/03 07:29:29;;;;;;;4.68;3.97;;;5.60;96.80;;;;;;4954240;28;20043;-82
2023/02/03 07:35:07;;;;;;;5.53;4.70;;;5.80;95.80;;;;;;4948960;29;20119;-83
2023/02/03 07:37:34;;;;;;;4.68;4.20;;;6.00;95.90;;;;;;4954431;28;20039;-77
2023/02/03 07:40:05;;;;;;;5.22;4.72;;;5.80;96.00;;;;;;4939765;29;20051;-78
2023/02/03 07:42:37;;;;;;;5.20;4.50;;;5.80;95.60;;;;;;4957486;28;20051;-80
2023/02/03 07:45:42;;;;;;;;;;;;;;;;;;;;;
2023/02/03 07:49:15;;;;;;;5.28;4.10;;;5.90;94.50;;;;;;4998888;28;20034;-82
2023/02/03 07:52:29;;;;;;;5.07;4.45;;;5.90;93.60;;;;;;4985428;28;20022;-78
2023/02/03 07:55:08;;;;;;;5.70;4.50;;;5.90;94.10;;;;;;5011018;28;20038;-81
2023/02/03 07:58:20;;;;;;;4.43;4.03;;;6.00;94.00;;;;;;4969097;28;20050;-77
2023/02/03 08:01:18;;;;;;;6.78;4.50;;;6.00;93.50;;;;;;4979078;28;20050;-79
2023/02/03 08:09:50;;;;;;;4.93;4.25;;;6.40;91.80;;;;;;4995925;28;20430;-79
2023/02/03 08:12:18;;;;;;;6.75;4.40;;;6.40;92.00;;;;;;4993734;28;20047;-79
2023/02/03 08:14:50;;;;;;;4.72;4.20;;;6.80;92.40;;;;;;4994597;28;20126;-79
2023/02/03 08:17:33;;;;;;;6.63;4.60;;;7.00;92.20;;;;;;4984553;28;20371;-76
2023/02/03 08:20:22;;;;;;;4.75;3.92;;;7.00;92.10;;;;;;4966546;28;20053;-76
2023/02/03 08:23:19;;;;;;;7.18;4.10;;;7.10;90.70;;;;;;4978147;28;20057;-79
2023/02/03 08:26:15;;;;;;;5.35;4.05;;;6.60;91.50;;;;;;4973286;28;20122;-82
2023/02/03 08:29:31;;;;;;;6.47;4.30;;;6.80;91.30;;;;;;4985219;28;20042;-78
2023/02/03 08:32:04;;;;;;;5.10;4.50;;;6.50;90.70;;;;;;4993855;28;20069;-79
2023/02/03 08:41:52;;;;;;;6.30;4.40;;;6.90;89.90;;;;;;4969187;28;20038;-76
2023/02/03 08:44:19;;;;;;;6.13;4.38;;;6.70;90.10;;;;;;4988089;28;20042;-78
2023/02/03 08:46:55;;;;;;;7.68;4.28;;;6.70;90.10;;;;;;4991677;28;20065;-81
2023/02/03 08:49:49;;;;;;;6.07;4.13;;;6.70;88.80;;;;;;4990332;28;20041;-78
2023/02/03 08:56:08;;;;;;;4.18;3.75;;;7.20;88.80;;;;;;4956478;28;20054;-80
2023/02/03 08:58:45;;;;;;;6.70;3.95;;;7.20;85.30;;;;;;5002354;28;20054;-80
2023/02/03 09:01:18;;;;;;;9.50;4.00;;;7.50;86.80;;;;;;4974246;28;20036;-81
2023/02/03 09:04:02;;;;;;;5.07;4.03;;;7.60;84.70;;;;;;4997009;28;20215;-82
2023/02/03 09:10:32;;;;;;;7.10;3.90;;;7.70;83.80;;;;;;4971424;28;20414;-83
2023/02/03 09:13:06;;;;;;;6.55;4.55;;;8.20;80.60;;;;;;4991238;28;20054;-82
2023/02/03 09:15:33;;;;;;;6.72;3.78;;;8.10;78.80;;;;;;5000805;28;20405;-82
2023/02/03 09:18:05;;;;;;;6.80;3.85;;;7.90;81.90;;;;;;4983150;28;20058;-76
2023/02/03 09:20:35;;;;;;;6.05;3.70;;;8.30;80.80;;;;;;4949979;28;20039;-83
2023/02/03 09:23:03;;;;;;;5.60;4.07;;;8.40;76.80;;;;;;4995446;28;20038;-80
2023/02/03 09:26:05;;;;;;;9.27;3.67;;;8.60;78.70;;;;;;4970162;28;20050;-82
2023/02/03 09:28:36;;;;;;;5.35;3.40;;;8.50;76.80;;;;;;5002563;28;20065;-81
2023/02/03 09:31:20;;;;;;;3.95;3.40;;;8.20;75.90;;;;;;4984508;28;20486;-80
2023/02/03 09:33:49;;;;;;;5.50;3.50;;;7.90;76.20;;;;;;4968515;28;20046;-78
2023/02/03 09:36:17;;;;;;;3.80;3.40;;;7.70;76.10;;;;;;4968935;28;20047;-75
2023/02/03 09:38:49;;;;;;;5.47;3.53;;;7.80;75.70;;;;;;4982628;28;20053;-75
2023/02/03 09:42:09;;;;;;;4.32;3.40;;;8.50;76.80;;;;;;4988052;28;20548;-79
2023/02/03 09:45:12;;;;;;;6.10;4.10;;;7.90;73.90;;;;;;4982741;28;20046;-82
2023/02/03 09:47:44;;;;;;;4.20;3.80;;;7.90;77.80;;;;;;4972371;28;20046;-83
2023/02/03 09:50:26;;;;;;;4.97;3.60;;;8.80;78.10;;;;;;4973905;28;20070;-77
2023/02/03 09:52:56;;;;;;;3.90;3.40;;;9.30;75.60;;;;;;4977867;23;20053;-82
2023/02/03 09:55:38;;;;;;;6.32;3.58;;;9.50;71.90;;;;;;4980767;28;20118;-78
2023/02/03 09:58:21;;;;;;;4.28;3.15;;;9.30;72.40;;;;;;4974270;28;20050;-79
2023/02/03 10:00:59;;;;;;;7.90;3.67;;;9.50;71.40;;;;;;4983511;28;20034;-76
2023/02/03 10:03:50;;;;;;;4.68;3.58;;;9.80;71.80;;;;;;4958606;28;20055;-77
2023/02/03 10:06:38;;;;;;;7.40;3.65;;;9.50;69.10;;;;;;4994112;28;20050;-76
2023/02/03 10:09:24;;;;;;;4.10;3.30;;;8.90;69.20;;;;;;4961005;28;20045;-77
2023/02/03 10:12:13;;;;;;;3.50;3.10;;;9.70;72.30;;;;;;4959297;28;20050;-75
2023/02/03 10:14:41;;;;;;;4.28;3.22;;;9.90;65.00;;;;;;4967032;28;20089;-75
2023/02/03 10:17:32;;;;;;;4.85;3.30;;;9.90;65.90;;;;;;4989106;28;20031;-75
2023/02/03 10:20:08;;;;;;;4.45;3.47;;;10.40;66.00;;;;;;4987767;28;20049;-75
2023/02/03 10:23:12;;;;;;;5.53;3.50;;;10.90;65.70;;;;;;4971804;28;20070;-77
2023/02/03 10:25:55;;;;;;;3.75;3.15;;;10.90;63.10;;;;;;4963007;28;20050;-74
2023/02/03 10:28:36;;;;;;;4.95;3.30;;;10.60;63.40;;;;;;4977740;28;20046;-75
2023/02/03 10:31:15;;;;;;;3.58;2.97;;;10.70;63.50;;;;;;4955998;28;20070;-79
2023/02/03 10:33:47;;;;;;;6.53;3.20;;;10.70;63.70;;;;;;4949691;28;20042;-75
2023/02/03 10:37:27;;;;;;;4.82;3.47;;;10.90;62.50;;;;;;4975235;28;20097;-78
2023/02/03 10:43:52;;;;;;;3.85;3.28;;;11.60;62.00;;;;;;4321835;22;20050;-78
2023/02/03 10:46:33;;;;;;;4.38;3.10;;;11.30;57.90;;;;;;5007900;28;20076;-81
2023/02/03 10:50:06;;;;;;;7.65;3.70;;;10.00;63.00;;;;;;5000630;23;20390;-79
2023/02/03 11:04:03;;;;;;;4.70;3.38;;;11.40;58.80;;;;;;4996883;28;20502;-75
2023/02/03 11:07:05;;;;;;;5.55;2.83;;;11.60;60.70;;;;;;4971107;28;20482;-77
2023/02/03 11:09:43;;;;;;;3.67;2.38;;;12.50;62.70;;;;;;4981147;28;20070;-78
2023/02/03 11:13:44;;;;;;;;;;;;;;;;;;;;;
2023/02/03 11:17:03;;;;;;;4.95;2.65;;;13.20;56.00;;;;;;4975085;28;20061;-82
2023/02/03 11:20:25;;;;;;;5.25;2.88;;;13.60;55.80;;;;;;4970348;28;20095;-80
2023/02/03 12:11:38;;;;;;;2.90;2.13;;;15.30;47.50;;;;;;4953838;29;20070;-79
2023/02/03 12:21:43;;;;;;;3.92;2.35;;;14.70;48.20;;;;;;5231976;23;20092;-85
2023/02/03 12:24:28;;;;;;;3.20;2.00;;;15.60;48.70;;;;;;4980083;23;20062;-82
2023/02/03 12:27:46;;;;;;;2.88;1.90;;;15.10;46.60;;;;;;4923057;29;20657;-84
2023/02/03 12:31:06;;;;;;;3.83;2.15;;;15.00;47.60;;;;;;4923185;29;20038;-78
2023/02/03 12:36:59;;;;;;;3.40;2.10;;;15.20;48.50;;;;;;5108799;23;20054;-82
2023/02/03 12:39:52;;;;;;;5.32;2.30;;;15.60;47.30;;;;;;4972776;28;20038;-84
2023/02/03 12:42:50;;;;;;;4.30;2.50;;;15.60;46.70;;;;;;4943335;28;20078;-82
2023/02/03 12:46:43;;;;;;;6.20;2.33;;;14.90;47.60;;;;;;4948844;28;20042;-85
2023/02/03 12:49:33;;;;;;;6.63;3.25;;;16.00;48.00;;;;;;4919095;29;20048;-81
2023/02/03 13:01:22;;;;;;;3.85;2.30;;;15.80;48.30;;;;;;4890507;29;20541;-78
2023/02/03 13:04:31;;;;;;;8.68;2.38;;;14.80;47.90;;;;;;4876369;29;20104;-82
2023/02/03 13:11:39;;;;;;;3.05;1.88;;;14.20;48.80;;;;;;5475115;23;20059;-81
2023/02/03 13:26:27;;;;;;;4.03;1.83;;;25.20;38.70;;;;;;4972972;28;20135;-81
2023/02/03 13:40:46;;;;;;;3.47;1.80;;;23.10;37.90;;;;;;4962210;23;20397;-77
2023/02/03 13:43:28;;;;;;;4.82;2.38;;;22.10;36.80;;;;;;4897217;29;20149;-76
2023/02/03 13:46:12;;;;;;;4.57;2.40;;;23.20;37.20;;;;;;4929848;29;20395;-73
2023/02/03 13:49:02;;;;;;;4.28;2.00;;;24.10;36.30;;;;;;4924925;29;20075;-76
2023/02/03 13:51:47;;;;;;;4.07;2.03;;;24.20;36.10;;;;;;4918410;29;20476;-74
2023/02/03 13:54:33;;;;;;;5.25;2.17;;;24.80;35.50;;;;;;4904924;29;20139;-77
2023/02/03 13:57:25;;;;;;;5.20;2.13;;;25.10;35.60;;;;;;4913179;29;20055;-79
2023/02/03 14:00:26;;;;;;;7.43;2.70;;;24.40;35.00;;;;;;4920499;29;20040;-73
2023/02/03 14:02:55;;;;;;;4.97;2.42;;;24.20;35.50;;;;;;4930736;29;20408;-74
2023/02/03 14:05:56;;;;;;;7.57;2.92;;;24.40;35.70;;;;;;4905408;29;20067;-73
2023/02/03 14:08:26;;;;;;;5.10;2.95;;;24.50;35.50;;;;;;4892409;23;20048;-74
2023/02/03 14:11:38;;;;;;;4.68;2.40;;;25.00;36.00;;;;;;4924807;29;20492;-72
2023/02/03 14:14:15;;;;;;;4.45;2.00;;;23.60;35.20;;;;;;4911907;29;20039;-75
2023/02/03 14:16:53;;;;;;;4.60;1.88;;;23.20;35.90;;;;;;4903631;29;20039;-74
2023/02/03 14:19:32;;;;;;;3.83;1.80;;;23.40;35.40;;;;;;4902531;29;20123;-74
2023/02/03 14:22:20;;;;;;;4.97;2.00;;;23.30;35.40;;;;;;4918858;29;20040;-76
2023/02/03 14:25:21;;;;;;;;;;;;;;;;;;;;;
2023/02/03 14:28:26;;;;;;;4.65;2.60;;;23.70;35.90;;;;;;4885374;29;20051;-72
2023/02/03 14:31:28;;;;;;;4.88;1.98;;;23.40;35.90;;;;;;4899440;29;20051;-78
2023/02/03 14:34:15;;;;;;;5.03;2.10;;;22.90;36.10;;;;;;4884483;29;20428;-75
2023/02/03 14:40:13;;;;;;;7.25;2.45;;;20.30;38.40;;;;;;4913559;29;20040;-75
2023/02/03 14:43:12;;;;;;;4.68;2.15;;;17.60;41.10;;;;;;4899800;29;20055;-75
2023/02/03 14:46:41;;;;;;;;;;;;;;;;;;;;;
2023/02/03 14:49:43;;;;;;;6.82;2.95;;;14.60;45.60;;;;;;4910311;29;20036;-79
2023/02/03 14:52:54;;;;;;;;;;;;;;;;;;;;;
2023/02/03 15:05:11;;;;;;;7.18;2.97;;;16.20;43.70;;;;;;4740702;30;20087;-75
2023/02/03 15:08:24;;;;;;;5.93;2.83;;;15.20;44.60;;;;;;4776078;29;20063;-73
2023/02/03 15:11:33;;;;;;;8.75;4.28;;;12.70;46.80;;;;;;4825909;29;20042;-76
2023/02/03 15:14:33;;;;;;;9.43;4.03;;;11.20;50.80;;;;;;4873372;29;20404;-75
2023/02/03 15:17:17;;;;;;;10.50;5.40;;;10.50;52.70;;;;;;4898345;29;20044;-75
2023/02/03 15:19:57;;;;;;;8.13;4.70;;;10.30;54.00;;;;;;4909578;29;20055;-73
2023/02/03 15:22:39;;;;;;;8.55;5.30;;;10.00;54.40;;;;;;4914745;29;20044;-75
2023/02/03 15:25:20;;;;;;;8.65;5.50;;;9.60;55.50;;;;;;4897803;29;20051;-72
2023/02/03 15:27:47;;;;;;;11.55;6.85;;;9.60;55.70;;;;;;4912811;29;20040;-73
2023/02/03 15:30:26;;;;;;;7.85;6.25;;;9.50;56.00;;;;;;4894632;29;20056;-70
2023/02/03 15:33:08;;;;;;;15.15;6.40;;;9.90;55.60;;;;;;4911908;29;20036;-73
2023/02/03 15:35:38;;;;;;;10.82;6.80;;;10.00;55.30;;;;;;4913813;29;20466;-71
2023/02/03 15:38:26;;;;;;;10.15;6.65;;;9.60;56.40;;;;;;4912606;29;20064;-72
2023/02/03 15:40:56;;;;;;;8.43;6.28;;;9.10;57.80;;;;;;4914257;29;20047;-72
2023/02/03 15:43:30;;;;;;;;;;;9.20;57.20;;;;;;4894272;29;20041;-72
2023/02/03 15:46:29;;;;;;;12.23;7.45;;;9.40;56.80;;;;;;4909580;29;20303;-75
2023/02/03 15:49:24;;;;;;;15.57;9.32;;;9.50;56.80;;;;;;4880010;29;20047;-70
2023/02/03 15:51:56;;;;;;;15.52;8.95;;;9.40;57.40;;;;;;4910110;29;20036;-72
2023/02/03 15:54:23;;;;;;;17.23;9.50;;;9.30;58.10;;;;;;4908520;29;20553;-71
2023/02/03 15:56:57;;;;;;;12.88;8.75;;;9.30;57.80;;;;;;4966708;23;20054;-72
2023/02/03 15:59:45;;;;;;;15.23;9.57;;;9.20;57.50;;;;;;4953706;28;20035;-73
2023/02/03 16:02:26;;;;;;;18.48;9.75;;;9.20;57.80;;;;;;4969732;28;20257;-74
2023/02/03 16:04:53;;;;;;;17.70;10.35;;;9.20;58.40;;;;;;4969235;28;20129;-73
2023/02/03 16:07:24;;;;;;;20.40;11.20;;;9.00;58.70;;;;;;4970780;28;20039;-74
2023/02/03 16:09:54;;;;;;;16.92;10.73;;;9.00;59.20;;;;;;4970986;28;20241;-72
2023/02/03 16:12:23;;;;;;;21.17;12.13;;;8.90;59.30;;;;;;4962450;28;20089;-73
2023/02/03 16:14:51;;;;;;;22.75;12.60;;;9.00;59.50;;;;;;4971582;28;20078;-72
2023/02/03 16:17:31;;;;;;;20.33;13.15;;;8.70;60.90;;;;;;4938275;28;20059;-70
2023/02/03 16:20:10;;;;;;;21.15;11.45;;;8.50;61.10;;;;;;4970211;28;20038;-73
2023/02/03 16:22:43;;;;;;;12.23;9.45;;;8.50;60.80;;;;;;4968950;28;20053;-73
2023/02/03 16:25:17;;;;;;;19.45;9.48;;;8.50;60.80;;;;;;4946610;23;20048;-71
2023/02/03 16:50:58;;;;;;;25.27;14.23;;;7.70;64.80;;;;;;4936902;28;20042;-70
2023/02/03 16:53:29;;;;;;;24.83;15.07;;;7.90;65.30;;;;;;4939472;28;20184;-71
2023/02/03 16:55:57;;;;;;;;;;;8.10;66.00;;;;;;4927072;29;20146;-73
2023/02/03 16:58:27;;;;;;;28.00;17.83;;;8.30;67.40;;;;;;4933275;29;19933;-70
2023/02/03 17:01:01;;;;;;;29.08;17.42;;;8.30;65.70;;;;;;4950441;28;20452;-73
2023/02/03 17:03:34;;;;;;;58.45;33.78;;;8.20;65.10;;;;;;4912455;28;20054;-70
2023/02/03 17:06:10;;;;;;;77.10;44.08;;;8.30;65.70;;;;;;4957747;28;20058;-74
2023/02/03 17:08:39;;;;;;;34.28;22.45;;;8.20;64.70;;;;;;4932720;29;20066;-76
2023/02/03 17:11:14;;;;;;;42.97;22.77;;;7.90;65.20;;;;;;4913775;28;20381;-74
2023/02/03 17:13:41;;;;;;;45.42;27.92;;;7.70;66.60;;;;;;4922001;28;20047;-74
2023/02/03 17:16:15;;;;;;;47.63;28.55;;;7.70;66.70;;;;;;4939113;28;20070;-72
2023/02/03 17:18:46;;;;;;;43.47;25.13;;;7.80;66.10;;;;;;4924587;28;20035;-73
2023/02/03 17:21:22;;;;;;;36.53;24.08;;;7.70;65.60;;;;;;4928372;28;20058;-73
2023/02/03 17:23:50;;;;;;;31.77;20.45;;;7.60;66.60;;;;;;4919339;28;20138;-73
2023/02/03 17:26:20;;;;;;;27.85;19.58;;;7.60;66.50;;;;;;4932828;28;20221;-73
2023/02/03 17:28:50;;;;;;;;;;;7.60;66.20;;;;;;4925714;28;20054;-73
2023/02/03 17:31:22;;;;;;;31.27;19.48;;;7.50;66.20;;;;;;4930115;28;20342;-73
2023/02/03 17:33:59;;;;;;;34.88;20.73;;;7.30;66.60;;;;;;4935370;28;20053;-74
2023/02/03 17:36:34;;;;;;;38.47;21.08;;;7.10;68.00;;;;;;4924100;29;20327;-75
2023/02/03 17:39:08;;;;;;;31.98;20.50;;;7.20;68.60;;;;;;4916549;29;20063;-74
2023/02/03 17:41:52;;;;;;;40.17;22.45;;;7.20;69.30;;;;;;4924920;23;20098;-72